createdAt,value
2023-09-27T00:00:16.866Z,1010.81
2023-09-27T00:01:17.790Z,1010.81
2023-09-27T00:02:18.769Z,1010.80
2023-09-27T00:03:19.734Z,1010.79
2023-09-27T00:04:20.260Z,1010.79
2023-09-27T00:05:21.189Z,1010.79
2023-09-27T00:06:21.785Z,1010.81
2023-09-27T00:07:22.754Z,1010.84
2023-09-27T00:08:23.226Z,1010.87
2023-09-27T00:09:24.140Z,1010.91
2023-09-27T00:10:24.999Z,1010.94
2023-09-27T00:11:25.921Z,1010.96
2023-09-27T00:12:26.773Z,1010.97
2023-09-27T00:13:27.668Z,1010.97
2023-09-27T00:14:28.571Z,1010.96
2023-09-27T00:15:29.476Z,1010.94
2023-09-27T00:16:30.396Z,1010.92
2023-09-27T00:17:31.389Z,1010.89
2023-09-27T00:18:32.296Z,1010.85
2023-09-27T00:19:33.163Z,1010.82
2023-09-27T00:20:34.016Z,1010.79
2023-09-27T00:21:34.892Z,1010.75
2023-09-27T00:22:35.747Z,1010.72
2023-09-27T00:23:36.648Z,1010.69
2023-09-27T00:24:37.504Z,1010.68
2023-09-27T00:25:38.372Z,1010.70
2023-09-27T00:26:39.256Z,1010.72
2023-09-27T00:27:40.133Z,1010.75
2023-09-27T00:28:41.074Z,1010.79
2023-09-27T00:29:41.962Z,1010.81
2023-09-27T00:30:42.825Z,1010.81
2023-09-27T00:31:43.747Z,1010.80
2023-09-27T00:32:44.715Z,1010.80
2023-09-27T00:33:45.630Z,1010.80
2023-09-27T00:34:46.136Z,1010.80
2023-09-27T00:35:47.041Z,1010.80
2023-09-27T00:36:47.934Z,1010.81
2023-09-27T00:37:48.899Z,1010.82
2023-09-27T00:38:49.392Z,1010.81
2023-09-27T00:39:50.275Z,1010.81
2023-09-27T00:40:51.201Z,1010.80
2023-09-27T00:41:52.037Z,1010.80
2023-09-27T00:42:52.904Z,1010.80
2023-09-27T00:43:53.815Z,1010.81
2023-09-27T00:44:54.728Z,1010.80
2023-09-27T00:45:55.584Z,1010.79
2023-09-27T00:46:56.531Z,1010.79
2023-09-27T00:47:57.435Z,1010.79
2023-09-27T00:48:58.346Z,1010.79
2023-09-27T00:49:59.240Z,1010.81
2023-09-27T00:51:00.152Z,1010.81
2023-09-27T00:52:00.993Z,1010.82
2023-09-27T00:53:01.878Z,1010.83
2023-09-27T00:54:02.733Z,1010.82
2023-09-27T00:55:03.621Z,1010.81
2023-09-27T00:56:05.726Z,1010.81
2023-09-27T00:57:05.076Z,1010.80
2023-09-27T00:58:05.952Z,1010.80
2023-09-27T00:59:07.026Z,1010.79
2023-09-27T01:00:07.418Z,1010.80
2023-09-27T01:01:08.357Z,1010.81
2023-09-27T01:02:09.278Z,1010.83
2023-09-27T01:03:10.165Z,1010.83
2023-09-27T01:04:11.054Z,1010.82
2023-09-27T01:05:12.076Z,1010.81
2023-09-27T01:06:12.579Z,1010.81
2023-09-27T01:07:13.462Z,1010.82
2023-09-27T01:08:14.525Z,1010.84
2023-09-27T01:09:15.400Z,1010.85
2023-09-27T01:10:16.270Z,1010.87
2023-09-27T01:11:17.243Z,1010.90
2023-09-27T01:12:18.080Z,1010.94
2023-09-27T01:13:19.033Z,1010.97
2023-09-27T01:14:19.965Z,1011.00
2023-09-27T01:15:20.841Z,1011.01
2023-09-27T01:16:21.768Z,1011.01
2023-09-27T01:17:22.756Z,1010.99
2023-09-27T01:18:23.644Z,1010.99
2023-09-27T01:19:24.541Z,1011.00
2023-09-27T01:20:25.455Z,1011.02
2023-09-27T01:21:26.299Z,1011.03
2023-09-27T01:22:27.176Z,1011.02
2023-09-27T01:23:28.082Z,1011.00
2023-09-27T01:24:28.932Z,1010.99
2023-09-27T01:25:29.794Z,1010.98
2023-09-27T01:26:30.692Z,1010.99
2023-09-27T01:27:31.551Z,1011.01
2023-09-27T01:28:32.456Z,1011.03
2023-09-27T01:29:33.333Z,1011.05
2023-09-27T01:30:34.282Z,1011.06
2023-09-27T01:31:35.223Z,1011.07
2023-09-27T01:32:36.173Z,1011.07
2023-09-27T01:33:36.601Z,1011.07
2023-09-27T01:34:37.522Z,1011.07
2023-09-27T01:35:38.400Z,1011.06
2023-09-27T01:36:39.303Z,1011.05
2023-09-27T01:37:40.155Z,1011.05
2023-09-27T01:38:41.024Z,1011.04
2023-09-27T01:39:41.905Z,1011.03
2023-09-27T01:40:42.811Z,1011.03
2023-09-27T01:41:43.653Z,1011.05
2023-09-27T01:42:44.646Z,1011.07
2023-09-27T01:43:45.091Z,1011.10
2023-09-27T01:44:45.961Z,1011.12
2023-09-27T01:45:46.862Z,1011.14
2023-09-27T01:46:47.716Z,1011.16
2023-09-27T01:47:48.606Z,1011.17
2023-09-27T01:48:49.568Z,1011.17
2023-09-27T01:49:50.697Z,1011.16
2023-09-27T01:50:51.124Z,1011.18
2023-09-27T01:51:52.002Z,1011.21
2023-09-27T01:52:52.890Z,1011.23
2023-09-27T01:53:53.740Z,1011.24
2023-09-27T01:54:54.610Z,1011.23
2023-09-27T01:55:55.577Z,1011.25
2023-09-27T01:56:56.444Z,1011.28
2023-09-27T01:57:57.340Z,1011.31
2023-09-27T01:58:58.236Z,1011.32
2023-09-27T01:59:59.092Z,1011.33
2023-09-27T02:01:00.041Z,1011.34
2023-09-27T02:02:00.921Z,1011.34
2023-09-27T02:03:01.965Z,1011.34
2023-09-27T02:04:02.479Z,1011.34
2023-09-27T02:05:03.488Z,1011.32
2023-09-27T02:06:03.972Z,1011.30
2023-09-27T02:07:04.967Z,1011.28
2023-09-27T02:08:05.882Z,1011.28
2023-09-27T02:09:06.724Z,1011.29
2023-09-27T02:10:07.587Z,1011.29
2023-09-27T02:11:08.487Z,1011.29
2023-09-27T02:12:09.347Z,1011.27
2023-09-27T02:13:10.223Z,1011.24
2023-09-27T02:14:11.125Z,1011.22
2023-09-27T02:15:12.009Z,1011.21
2023-09-27T02:16:12.899Z,1011.22
2023-09-27T02:17:13.864Z,1011.25
2023-09-27T02:18:14.756Z,1011.28
2023-09-27T02:19:15.596Z,1011.31
2023-09-27T02:20:16.562Z,1011.34
2023-09-27T02:21:17.406Z,1011.38
2023-09-27T02:22:18.298Z,1011.41
2023-09-27T02:23:19.183Z,1011.43
2023-09-27T02:24:20.068Z,1011.45
2023-09-27T02:25:20.955Z,1011.45
2023-09-27T02:26:21.921Z,1011.47
2023-09-27T02:27:22.780Z,1011.48
2023-09-27T02:28:23.709Z,1011.50
2023-09-27T02:29:24.587Z,1011.51
2023-09-27T02:30:25.433Z,1011.52
2023-09-27T02:31:26.333Z,1011.50
2023-09-27T02:32:27.252Z,1011.48
2023-09-27T02:33:28.107Z,1011.45
2023-09-27T02:34:28.987Z,1011.42
2023-09-27T02:35:29.674Z,1011.41
2023-09-27T02:36:30.510Z,1011.40
2023-09-27T02:37:31.394Z,1011.40
2023-09-27T02:38:32.372Z,1011.40
2023-09-27T02:39:32.750Z,1011.41
2023-09-27T02:40:33.624Z,1011.40
2023-09-27T02:41:34.496Z,1011.38
2023-09-27T02:42:35.357Z,1011.36
2023-09-27T02:43:36.233Z,1011.33
2023-09-27T02:44:37.114Z,1011.31
2023-09-27T02:45:38.062Z,1011.29
2023-09-27T02:46:38.944Z,1011.27
2023-09-27T02:47:39.880Z,1011.27
2023-09-27T02:48:40.871Z,1011.28
2023-09-27T02:49:41.712Z,1011.30
2023-09-27T02:50:42.598Z,1011.31
2023-09-27T02:51:43.486Z,1011.31
2023-09-27T02:52:44.380Z,1011.31
2023-09-27T02:53:45.263Z,1011.28
2023-09-27T02:54:46.113Z,1011.26
2023-09-27T02:55:46.990Z,1011.24
2023-09-27T02:56:47.851Z,1011.22
2023-09-27T02:57:48.950Z,1011.21
2023-09-27T02:58:49.291Z,1011.20
2023-09-27T02:59:50.156Z,1011.19
2023-09-27T03:00:51.045Z,1011.17
2023-09-27T03:01:51.930Z,1011.15
2023-09-27T03:02:52.847Z,1011.14
2023-09-27T03:03:53.749Z,1011.14
2023-09-27T03:04:54.650Z,1011.14
2023-09-27T03:05:55.524Z,1011.14
2023-09-27T03:06:56.370Z,1011.13
2023-09-27T03:07:57.339Z,1011.10
2023-09-27T03:08:58.179Z,1011.06
2023-09-27T03:09:59.050Z,1011.02
2023-09-27T03:10:59.963Z,1011.01
2023-09-27T03:12:00.800Z,1011.01
2023-09-27T03:13:01.714Z,1011.03
2023-09-27T03:14:02.641Z,1011.04
2023-09-27T03:15:03.542Z,1011.05
2023-09-27T03:16:04.468Z,1011.06
2023-09-27T03:17:05.367Z,1011.06
2023-09-27T03:18:06.338Z,1011.06
2023-09-27T03:19:07.203Z,1011.03
2023-09-27T03:20:08.105Z,1010.99
2023-09-27T03:21:09.046Z,1010.96
2023-09-27T03:22:09.892Z,1010.92
2023-09-27T03:23:10.867Z,1010.90
2023-09-27T03:24:11.725Z,1010.88
2023-09-27T03:25:12.596Z,1010.87
2023-09-27T03:26:13.541Z,1010.88
2023-09-27T03:27:14.395Z,1010.89
2023-09-27T03:28:15.282Z,1010.91
2023-09-27T03:29:16.140Z,1010.93
2023-09-27T03:30:17.008Z,1010.95
2023-09-27T03:31:17.912Z,1010.97
2023-09-27T03:32:18.796Z,1010.98
2023-09-27T03:33:19.663Z,1010.96
2023-09-27T03:34:20.539Z,1010.94
2023-09-27T03:35:21.454Z,1010.91
2023-09-27T03:36:22.329Z,1010.90
2023-09-27T03:37:23.196Z,1010.91
2023-09-27T03:38:24.086Z,1010.92
2023-09-27T03:39:24.936Z,1010.93
2023-09-27T03:40:25.807Z,1010.92
2023-09-27T03:41:26.739Z,1010.92
2023-09-27T03:42:27.590Z,1010.92
2023-09-27T03:43:28.485Z,1010.94
2023-09-27T03:44:29.345Z,1010.97
2023-09-27T03:45:30.206Z,1011.01
2023-09-27T03:46:31.145Z,1011.03
2023-09-27T03:47:31.692Z,1011.05
2023-09-27T03:48:32.093Z,1011.06
2023-09-27T03:49:32.962Z,1011.06
2023-09-27T03:50:33.903Z,1011.06
2023-09-27T03:51:34.800Z,1011.06
2023-09-27T03:52:35.627Z,1011.07
2023-09-27T03:53:36.585Z,1011.08
2023-09-27T03:54:37.005Z,1011.10
2023-09-27T03:55:37.951Z,1011.11
2023-09-27T03:56:38.876Z,1011.12
2023-09-27T03:57:39.740Z,1011.13
2023-09-27T03:58:40.632Z,1011.13
2023-09-27T03:59:41.477Z,1011.14
2023-09-27T04:00:42.367Z,1011.15
2023-09-27T04:01:43.339Z,1011.16
2023-09-27T04:02:44.282Z,1011.16
2023-09-27T04:03:45.265Z,1011.17
2023-09-27T04:04:46.130Z,1011.18
2023-09-27T04:05:47.033Z,1011.19
2023-09-27T04:06:47.947Z,1011.19
2023-09-27T04:07:48.795Z,1011.18
2023-09-27T04:08:49.677Z,1011.18
2023-09-27T04:09:50.550Z,1011.18
2023-09-27T04:10:51.412Z,1011.18
2023-09-27T04:11:52.295Z,1011.18
2023-09-27T04:12:53.164Z,1011.19
2023-09-27T04:13:54.040Z,1011.18
2023-09-27T04:14:54.920Z,1011.17
2023-09-27T04:15:55.846Z,1011.16
2023-09-27T04:16:56.715Z,1011.15
2023-09-27T04:17:57.597Z,1011.14
2023-09-27T04:18:58.477Z,1011.13
2023-09-27T04:19:59.384Z,1011.13
2023-09-27T04:21:00.268Z,1011.14
2023-09-27T04:22:01.192Z,1011.14
2023-09-27T04:23:02.109Z,1011.14
2023-09-27T04:24:02.983Z,1011.14
2023-09-27T04:25:03.860Z,1011.14
2023-09-27T04:26:04.820Z,1011.14
2023-09-27T04:27:05.678Z,1011.13
2023-09-27T04:28:06.552Z,1011.13
2023-09-27T04:29:08.571Z,1011.12
2023-09-27T04:30:08.030Z,1011.11
2023-09-27T04:31:08.958Z,1011.12
2023-09-27T04:32:09.830Z,1011.14
2023-09-27T04:33:10.737Z,1011.15
2023-09-27T04:34:11.588Z,1011.16
2023-09-27T04:35:12.480Z,1011.16
2023-09-27T04:36:13.350Z,1011.15
2023-09-27T04:37:14.255Z,1011.13
2023-09-27T04:38:15.142Z,1011.13
2023-09-27T04:39:15.981Z,1011.12
2023-09-27T04:40:16.858Z,1011.13
2023-09-27T04:41:17.769Z,1011.15
2023-09-27T04:42:18.649Z,1011.16
2023-09-27T04:43:19.533Z,1011.17
2023-09-27T04:44:20.418Z,1011.17
2023-09-27T04:45:21.298Z,1011.17
2023-09-27T04:46:22.189Z,1011.16
2023-09-27T04:47:23.072Z,1011.17
2023-09-27T04:48:23.982Z,1011.18
2023-09-27T04:49:24.838Z,1011.19
2023-09-27T04:50:25.761Z,1011.18
2023-09-27T04:51:26.702Z,1011.17
2023-09-27T04:52:27.569Z,1011.16
2023-09-27T04:53:28.446Z,1011.15
2023-09-27T04:54:29.398Z,1011.14
2023-09-27T04:55:30.272Z,1011.13
2023-09-27T04:56:31.205Z,1011.13
2023-09-27T04:57:32.087Z,1011.13
2023-09-27T04:58:32.944Z,1011.13
2023-09-27T04:59:33.814Z,1011.13
2023-09-27T05:00:34.694Z,1011.14
2023-09-27T05:01:35.605Z,1011.15
2023-09-27T05:02:36.482Z,1011.15
2023-09-27T05:03:37.418Z,1011.15
2023-09-27T05:04:38.404Z,1011.15
2023-09-27T05:05:39.297Z,1011.14
2023-09-27T05:06:40.158Z,1011.14
2023-09-27T05:07:41.208Z,1011.12
2023-09-27T05:08:41.762Z,1011.10
2023-09-27T05:09:42.670Z,1011.10
2023-09-27T05:10:43.544Z,1011.10
2023-09-27T05:11:44.455Z,1011.10
2023-09-27T05:12:45.321Z,1011.09
2023-09-27T05:13:46.181Z,1011.09
2023-09-27T05:14:47.046Z,1011.09
2023-09-27T05:15:47.990Z,1011.10
2023-09-27T05:16:48.827Z,1011.12
2023-09-27T05:17:49.876Z,1011.16
2023-09-27T05:18:50.275Z,1011.19
2023-09-27T05:19:51.127Z,1011.22
2023-09-27T05:20:51.987Z,1011.23
2023-09-27T05:21:52.856Z,1011.24
2023-09-27T05:22:53.765Z,1011.25
2023-09-27T05:23:54.607Z,1011.25
2023-09-27T05:24:55.505Z,1011.26
2023-09-27T05:25:56.352Z,1011.27
2023-09-27T05:26:57.231Z,1011.28
2023-09-27T05:27:58.201Z,1011.30
2023-09-27T05:28:59.116Z,1011.30
2023-09-27T05:29:59.962Z,1011.29
2023-09-27T05:31:00.849Z,1011.29
2023-09-27T05:32:01.744Z,1011.28
2023-09-27T05:33:02.630Z,1011.28
2023-09-27T05:34:03.518Z,1011.29
2023-09-27T05:35:04.429Z,1011.29
2023-09-27T05:36:05.259Z,1011.30
2023-09-27T05:37:06.128Z,1011.30
2023-09-27T05:38:06.706Z,1011.29
2023-09-27T05:39:07.562Z,1011.26
2023-09-27T05:40:08.435Z,1011.23
2023-09-27T05:41:09.344Z,1011.20
2023-09-27T05:42:10.177Z,1011.19
2023-09-27T05:43:11.040Z,1011.19
2023-09-27T05:44:11.992Z,1011.20
2023-09-27T05:45:12.994Z,1011.22
2023-09-27T05:46:13.525Z,1011.22
2023-09-27T05:47:14.540Z,1011.22
2023-09-27T05:48:15.006Z,1011.20
2023-09-27T05:49:15.912Z,1011.19
2023-09-27T05:50:16.858Z,1011.18
2023-09-27T05:51:17.302Z,1011.17
2023-09-27T05:52:18.205Z,1011.18
2023-09-27T05:53:19.162Z,1011.19
2023-09-27T05:54:20.048Z,1011.20
2023-09-27T05:55:20.916Z,1011.22
2023-09-27T05:56:21.815Z,1011.23
2023-09-27T05:57:22.731Z,1011.26
2023-09-27T05:58:24.468Z,1011.29
2023-09-27T05:59:24.335Z,1011.31
2023-09-27T06:00:25.221Z,1011.34
2023-09-27T06:01:26.160Z,1011.36
2023-09-27T06:02:27.221Z,1011.38
2023-09-27T06:03:27.674Z,1011.41
2023-09-27T06:04:28.804Z,1011.43
2023-09-27T06:05:29.274Z,1011.45
2023-09-27T06:06:30.125Z,1011.46
2023-09-27T06:07:30.994Z,1011.47
2023-09-27T06:08:31.924Z,1011.49
2023-09-27T06:09:32.863Z,1011.52
2023-09-27T06:10:33.741Z,1011.56
2023-09-27T06:11:34.651Z,1011.60
2023-09-27T06:12:35.488Z,1011.63
2023-09-27T06:13:36.370Z,1011.65
2023-09-27T06:14:37.267Z,1011.66
2023-09-27T06:15:38.228Z,1011.66
2023-09-27T06:16:39.174Z,1011.67
2023-09-27T06:17:40.151Z,1011.67
2023-09-27T06:18:40.831Z,1011.68
2023-09-27T06:19:41.218Z,1011.69
2023-09-27T06:20:42.146Z,1011.70
2023-09-27T06:21:42.963Z,1011.70
2023-09-27T06:22:43.831Z,1011.71
2023-09-27T06:23:44.725Z,1011.72
2023-09-27T06:24:45.591Z,1011.72
2023-09-27T06:25:46.453Z,1011.73
2023-09-27T06:26:47.331Z,1011.73
2023-09-27T06:27:48.195Z,1011.74
2023-09-27T06:28:49.051Z,1011.73
2023-09-27T06:29:49.826Z,1011.72
2023-09-27T06:30:50.764Z,1011.70
2023-09-27T06:31:51.660Z,1011.69
2023-09-27T06:32:52.653Z,1011.68
2023-09-27T06:33:53.105Z,1011.66
2023-09-27T06:34:53.952Z,1011.65
2023-09-27T06:35:54.821Z,1011.63
2023-09-27T06:36:55.695Z,1011.62
2023-09-27T06:37:56.582Z,1011.62
2023-09-27T06:38:57.479Z,1011.64
2023-09-27T06:39:58.322Z,1011.66
2023-09-27T06:40:59.189Z,1011.68
2023-09-27T06:42:00.067Z,1011.70
2023-09-27T06:43:00.980Z,1011.72
2023-09-27T06:44:01.949Z,1011.74
2023-09-27T06:45:02.813Z,1011.76
2023-09-27T06:46:03.677Z,1011.78
2023-09-27T06:47:04.604Z,1011.80
2023-09-27T06:48:05.223Z,1011.80
2023-09-27T06:49:05.752Z,1011.80
2023-09-27T06:50:06.611Z,1011.80
2023-09-27T06:51:07.469Z,1011.82
2023-09-27T06:52:08.344Z,1011.85
2023-09-27T06:53:22.338Z,1011.87
2023-09-27T06:54:11.070Z,1011.89
2023-09-27T06:55:10.913Z,1011.90
2023-09-27T06:56:11.791Z,1011.90
2023-09-27T06:57:12.649Z,1011.90
2023-09-27T06:58:13.546Z,1011.89
2023-09-27T06:59:14.432Z,1011.89
2023-09-27T07:00:15.315Z,1011.89
2023-09-27T07:01:16.274Z,1011.89
2023-09-27T07:02:17.153Z,1011.91
2023-09-27T07:03:18.093Z,1011.93
2023-09-27T07:04:18.570Z,1011.96
2023-09-27T07:05:19.466Z,1012.00
2023-09-27T07:06:20.336Z,1012.03
2023-09-27T07:07:21.242Z,1012.06
2023-09-27T07:08:22.185Z,1012.06
2023-09-27T07:09:23.071Z,1012.06
2023-09-27T07:10:23.927Z,1012.04
2023-09-27T07:11:24.830Z,1012.03
2023-09-27T07:12:25.732Z,1012.01
2023-09-27T07:13:26.257Z,1012.00
2023-09-27T07:14:27.155Z,1011.99
2023-09-27T07:15:28.028Z,1012.00
2023-09-27T07:16:28.921Z,1012.02
2023-09-27T07:17:29.944Z,1012.04
2023-09-27T07:18:30.589Z,1012.05
2023-09-27T07:19:31.268Z,1012.05
2023-09-27T07:20:32.107Z,1012.03
2023-09-27T07:21:33.056Z,1012.00
2023-09-27T07:22:33.946Z,1011.95
2023-09-27T07:23:34.841Z,1011.91
2023-09-27T07:24:35.721Z,1011.87
2023-09-27T07:25:36.600Z,1011.83
2023-09-27T07:26:37.487Z,1011.82
2023-09-27T07:27:38.339Z,1011.83
2023-09-27T07:28:39.217Z,1011.82
2023-09-27T07:29:40.124Z,1011.82
2023-09-27T07:30:41.026Z,1011.81
2023-09-27T07:31:41.876Z,1011.79
2023-09-27T07:32:42.833Z,1011.77
2023-09-27T07:33:45.803Z,1011.75
2023-09-27T07:34:43.977Z,1011.72
2023-09-27T07:35:44.881Z,1011.70
2023-09-27T07:36:45.515Z,1011.66
2023-09-27T07:37:46.398Z,1011.62
2023-09-27T07:38:47.363Z,1011.57
2023-09-27T07:39:48.244Z,1011.51
2023-09-27T07:40:49.088Z,1011.47
2023-09-27T07:41:49.955Z,1011.39
2023-09-27T07:42:50.845Z,1011.37
2023-09-27T07:43:52.047Z,1011.36
2023-09-27T07:44:52.652Z,1011.34
2023-09-27T07:45:53.516Z,1011.38
2023-09-27T07:46:54.397Z,1011.41
2023-09-27T07:47:55.437Z,1011.45
2023-09-27T07:48:55.869Z,1011.48
2023-09-27T07:49:56.727Z,1011.51
2023-09-27T07:50:57.615Z,1011.50
2023-09-27T07:51:58.484Z,1011.50
2023-09-27T07:52:59.362Z,1011.48
2023-09-27T07:54:00.258Z,1011.47
2023-09-27T07:55:01.145Z,1011.45
2023-09-27T07:56:02.093Z,1011.40
2023-09-27T07:57:02.502Z,1011.36
2023-09-27T07:58:03.366Z,1011.32
2023-09-27T07:59:04.246Z,1011.29
2023-09-27T08:00:05.145Z,1011.26
2023-09-27T08:01:06.112Z,1011.27
2023-09-27T08:02:07.021Z,1011.27
2023-09-27T08:03:08.014Z,1011.30
2023-09-27T08:04:11.331Z,1011.32
2023-09-27T08:05:09.762Z,1011.37
2023-09-27T08:06:10.300Z,1011.42
2023-09-27T08:07:11.364Z,1011.47
2023-09-27T08:08:11.765Z,1011.51
2023-09-27T08:09:20.148Z,1011.54
2023-09-27T08:11:14.358Z,1011.55
2023-09-27T08:12:14.744Z,1011.53
2023-09-27T08:13:15.618Z,1011.52
2023-09-27T08:14:16.501Z,1011.50
2023-09-27T08:15:17.399Z,1011.47
2023-09-27T08:16:18.310Z,1011.45
2023-09-27T08:17:19.200Z,1011.47
2023-09-27T08:18:20.240Z,1011.47
2023-09-27T08:19:20.604Z,1011.48
2023-09-27T08:20:21.493Z,1011.51
2023-09-27T08:21:22.359Z,1011.52
2023-09-27T08:22:23.221Z,1011.54
2023-09-27T08:23:24.091Z,1011.56
2023-09-27T08:24:25.002Z,1011.56
2023-09-27T08:25:25.879Z,1011.54
2023-09-27T08:26:26.774Z,1011.52
2023-09-27T08:27:27.640Z,1011.47
2023-09-27T08:28:28.477Z,1011.42
2023-09-27T08:29:29.357Z,1011.39
2023-09-27T08:30:30.234Z,1011.35
2023-09-27T08:31:31.116Z,1011.35
2023-09-27T08:32:32.092Z,1011.36
2023-09-27T08:33:32.572Z,1011.39
2023-09-27T08:34:33.395Z,1011.42
2023-09-27T08:35:34.302Z,1011.45
2023-09-27T08:36:35.284Z,1011.47
2023-09-27T08:37:36.140Z,1011.46
2023-09-27T08:38:37.325Z,1011.45
2023-09-27T08:39:37.808Z,1011.43
2023-09-27T08:40:38.717Z,1011.40
2023-09-27T08:41:39.683Z,1011.36
2023-09-27T08:42:40.525Z,1011.32
2023-09-27T08:43:41.406Z,1011.29
2023-09-27T08:44:42.328Z,1011.27
2023-09-27T08:45:43.188Z,1011.25
2023-09-27T08:46:44.088Z,1011.23
2023-09-27T08:47:45.091Z,1011.22
2023-09-27T08:48:45.506Z,1011.23
2023-09-27T08:49:46.372Z,1011.22
2023-09-27T08:50:47.278Z,1011.24
2023-09-27T08:51:48.131Z,1011.24
2023-09-27T08:52:48.985Z,1011.24
2023-09-27T08:53:49.942Z,1011.25
2023-09-27T08:54:50.815Z,1011.23
2023-09-27T08:55:54.473Z,1011.24
2023-09-27T08:56:52.538Z,1011.23
2023-09-27T08:57:53.425Z,1011.22
2023-09-27T08:58:54.522Z,1011.26
2023-09-27T08:59:55.090Z,1011.27
2023-09-27T09:00:55.570Z,1011.30
2023-09-27T09:01:56.452Z,1011.33
2023-09-27T09:02:57.416Z,1011.36
2023-09-27T09:03:57.944Z,1011.39
2023-09-27T09:04:58.405Z,1011.39
2023-09-27T09:05:58.953Z,1011.42
2023-09-27T09:06:59.852Z,1011.40
2023-09-27T09:08:00.773Z,1011.40
2023-09-27T09:09:01.722Z,1011.37
2023-09-27T09:10:02.555Z,1011.34
2023-09-27T09:11:03.473Z,1011.33
2023-09-27T09:12:04.325Z,1011.31
2023-09-27T09:13:05.180Z,1011.29
2023-09-27T09:14:06.625Z,1011.28
2023-09-27T09:15:06.745Z,1011.26
2023-09-27T09:16:07.648Z,1011.24
2023-09-27T09:17:08.571Z,1011.21
2023-09-27T09:18:09.474Z,1011.17
2023-09-27T09:19:10.327Z,1011.16
2023-09-27T09:20:11.244Z,1011.14
2023-09-27T09:21:12.103Z,1011.14
2023-09-27T09:22:13.075Z,1011.15
2023-09-27T09:23:14.149Z,1011.14
2023-09-27T09:24:14.510Z,1011.12
2023-09-27T09:25:15.402Z,1011.11
2023-09-27T09:26:16.310Z,1011.11
2023-09-27T09:27:18.312Z,1011.10
2023-09-27T09:28:17.978Z,1011.09
2023-09-27T09:29:18.922Z,1011.07
2023-09-27T09:30:19.808Z,1011.06
2023-09-27T09:31:20.677Z,1011.05
2023-09-27T09:32:21.655Z,1011.04
2023-09-27T09:33:22.164Z,1011.05
2023-09-27T09:34:23.010Z,1011.05
2023-09-27T09:35:23.895Z,1011.05
2023-09-27T09:36:24.771Z,1011.07
2023-09-27T09:37:25.637Z,1011.08
2023-09-27T09:38:26.618Z,1011.10
2023-09-27T09:39:27.511Z,1011.09
2023-09-27T09:40:28.356Z,1011.09
2023-09-27T09:41:29.336Z,1011.06
2023-09-27T09:42:30.199Z,1011.04
2023-09-27T09:43:31.094Z,1011.01
2023-09-27T09:44:31.967Z,1010.98
2023-09-27T09:45:32.835Z,1010.96
2023-09-27T09:46:33.771Z,1010.93
2023-09-27T09:47:34.722Z,1010.99
2023-09-27T09:48:35.688Z,1010.99
2023-09-27T09:49:36.568Z,1011.00
2023-09-27T09:50:37.467Z,1011.00
2023-09-27T09:51:38.305Z,1011.00
2023-09-27T09:52:39.178Z,1011.00
2023-09-27T09:53:40.365Z,1010.99
2023-09-27T09:54:40.967Z,1010.97
2023-09-27T09:56:52.936Z,1010.93
2023-09-27T09:57:52.372Z,1010.90
2023-09-27T09:58:45.172Z,1010.90
2023-09-27T09:59:45.098Z,1010.88
2023-09-27T10:00:45.943Z,1010.84
2023-09-27T10:01:46.901Z,1010.82
2023-09-27T10:02:47.835Z,1010.81
2023-09-27T10:03:48.415Z,1010.80
2023-09-27T10:04:49.307Z,1010.80
2023-09-27T10:05:50.205Z,1010.80
2023-09-27T10:06:51.098Z,1010.83
2023-09-27T10:07:51.927Z,1010.84
2023-09-27T10:08:52.937Z,1010.86
2023-09-27T10:09:53.429Z,1010.88
2023-09-27T10:10:54.369Z,1010.88
2023-09-27T10:11:55.287Z,1010.90
2023-09-27T10:12:56.123Z,1010.90
2023-09-27T10:13:57.020Z,1010.88
2023-09-27T10:14:57.888Z,1010.86
2023-09-27T10:15:58.848Z,1010.85
2023-09-27T10:16:59.677Z,1010.82
2023-09-27T10:18:00.705Z,1010.81
2023-09-27T10:19:01.100Z,1010.86
2023-09-27T10:20:01.755Z,1010.83
2023-09-27T10:21:02.678Z,1010.82
2023-09-27T10:22:03.523Z,1010.84
2023-09-27T10:23:04.406Z,1010.86
2023-09-27T10:24:05.350Z,1010.86
2023-09-27T10:25:06.223Z,1010.88
2023-09-27T10:26:07.139Z,1010.88
2023-09-27T10:27:08.014Z,1010.90
2023-09-27T10:28:08.865Z,1010.89
2023-09-27T10:29:09.784Z,1010.86
2023-09-27T10:30:10.655Z,1010.85
2023-09-27T10:31:11.580Z,1010.83
2023-09-27T10:32:12.441Z,1010.79
2023-09-27T10:33:13.355Z,1010.76
2023-09-27T10:34:14.223Z,1010.75
2023-09-27T10:35:15.147Z,1010.69
2023-09-27T10:36:16.052Z,1010.67
2023-09-27T10:37:19.623Z,1010.66
2023-09-27T10:38:17.837Z,1010.68
2023-09-27T10:39:18.754Z,1010.69
2023-09-27T10:40:19.675Z,1010.70
2023-09-27T10:41:20.571Z,1010.70
2023-09-27T10:42:21.559Z,1010.71
2023-09-27T10:43:22.444Z,1010.74
2023-09-27T10:44:23.292Z,1010.74
2023-09-27T10:45:24.207Z,1010.72
2023-09-27T10:46:25.185Z,1010.73
2023-09-27T10:47:26.130Z,1010.74
2023-09-27T10:48:26.580Z,1010.75
2023-09-27T10:49:27.431Z,1010.77
2023-09-27T10:50:28.346Z,1010.77
2023-09-27T10:51:29.211Z,1010.74
2023-09-27T10:52:30.218Z,1010.73
2023-09-27T10:53:31.103Z,1010.73
2023-09-27T10:54:32.852Z,1010.72
2023-09-27T10:55:32.719Z,1010.70
2023-09-27T10:56:33.700Z,1010.68
2023-09-27T10:57:34.704Z,1010.68
2023-09-27T10:58:35.040Z,1010.69
2023-09-27T10:59:35.991Z,1010.67
2023-09-27T11:00:36.842Z,1010.66
2023-09-27T11:01:37.774Z,1010.68
2023-09-27T11:02:38.645Z,1010.68
2023-09-27T11:03:39.628Z,1010.70
2023-09-27T11:04:40.579Z,1010.69
2023-09-27T11:05:41.062Z,1010.68
2023-09-27T11:06:41.928Z,1010.66
2023-09-27T11:07:42.825Z,1010.64
2023-09-27T11:08:52.219Z,1010.61
2023-09-27T11:09:44.437Z,1010.60
2023-09-27T11:10:45.287Z,1010.61
2023-09-27T11:11:46.265Z,1010.61
2023-09-27T11:12:46.687Z,1010.62
2023-09-27T11:13:47.537Z,1010.66
2023-09-27T11:14:48.792Z,1010.67
2023-09-27T11:15:49.212Z,1010.67
2023-09-27T11:16:50.119Z,1010.67
2023-09-27T11:17:51.134Z,1010.64
2023-09-27T11:18:51.618Z,1010.59
2023-09-27T11:19:52.487Z,1010.56
2023-09-27T11:20:53.408Z,1010.52
2023-09-27T11:21:54.293Z,1010.49
2023-09-27T11:22:55.171Z,1010.46
2023-09-27T11:23:56.090Z,1010.43
2023-09-27T11:24:56.950Z,1010.43
2023-09-27T11:25:57.819Z,1010.44
2023-09-27T11:26:58.691Z,1010.39
2023-09-27T11:27:59.600Z,1010.40
2023-09-27T11:29:00.449Z,1010.40
2023-09-27T11:30:01.333Z,1010.39
2023-09-27T11:31:02.254Z,1010.37
2023-09-27T11:32:03.095Z,1010.38
2023-09-27T11:33:04.064Z,1010.33
2023-09-27T11:34:04.931Z,1010.32
2023-09-27T11:35:05.833Z,1010.29
2023-09-27T11:36:06.745Z,1010.30
2023-09-27T11:37:07.610Z,1010.30
2023-09-27T11:38:08.684Z,1010.29
2023-09-27T11:39:09.194Z,1010.30
2023-09-27T11:40:10.081Z,1010.31
2023-09-27T11:41:10.991Z,1010.27
2023-09-27T11:42:11.856Z,1010.21
2023-09-27T11:43:12.756Z,1010.18
2023-09-27T11:44:13.657Z,1010.12
2023-09-27T11:45:14.543Z,1010.10
2023-09-27T11:46:15.428Z,1010.10
2023-09-27T11:47:16.313Z,1010.10
2023-09-27T11:48:17.287Z,1010.07
2023-09-27T11:49:17.684Z,1010.07
2023-09-27T11:50:18.597Z,1010.06
2023-09-27T11:51:19.524Z,1010.03
2023-09-27T11:52:20.393Z,1010.03
2023-09-27T11:53:21.317Z,1010.00
2023-09-27T11:54:22.136Z,1009.99
2023-09-27T11:55:23.025Z,1010.01
2023-09-27T11:56:23.930Z,1009.98
2023-09-27T11:57:24.777Z,1009.97
2023-09-27T11:58:25.730Z,1009.99
2023-09-27T11:59:26.585Z,1009.98
2023-09-27T12:00:27.476Z,1009.97
2023-09-27T12:01:28.335Z,1009.97
2023-09-27T12:02:32.937Z,1009.99
2023-09-27T12:03:30.766Z,1009.98
2023-09-27T12:04:30.462Z,1009.99
2023-09-27T12:05:31.397Z,1010.00
2023-09-27T12:06:31.655Z,1009.99
2023-09-27T12:07:32.533Z,1010.01
2023-09-27T12:08:33.078Z,1010.03
2023-09-27T12:09:33.934Z,1010.04
2023-09-27T12:10:34.810Z,1010.03
2023-09-27T12:11:35.724Z,1010.02
2023-09-27T12:12:36.574Z,1010.00
2023-09-27T12:13:37.482Z,1009.97
2023-09-27T12:14:38.440Z,1009.93
2023-09-27T12:15:39.312Z,1009.91
2023-09-27T12:16:40.216Z,1009.87
2023-09-27T12:17:41.126Z,1009.84